GCXO METAR and TAF | Updated Today

GCXO METAR

Tenerife Norte Airport

Observation time: 29 min. ago

GCXO 070900Z 15005KT 110V200 8000 FEW006 SCT100 14/13 Q1026 NOSIG

Need help? Read our tutorial on how to read METARs or read the parsed version below.

Tenerife Norte Airport (GCXO) METAR

  • Weather conditions on Tue, 07 Dec 2021 09:00:00 +0000 (29 min. ago):
  • Present conditions: Dry
  • Clouds: A few at 183 meters; scattered at 3048 meters
  • Visibility: 8000 meters
  • Wind: 150 degrees at 5 knots
  • Temperature: 14 celsius
  • Dew point: 13 celsius
  • Pressure: 1026 millibars
  • Remarks: None


Useful to know...

GCXO TAF

Tenerife Norte Airport

TAF GCXO 070800Z 0709/0809 13006KT 9999 BKN010 TX18/0713Z TN13/0806Z PROB30 TEMPO 0709/0710 4000 BCFG
Observation time: 89 min. ago
Need help? Read our tutorial on how to read TAFs or read the parsed version below.

Parsed version of TAF for Tenerife Norte Airport (GCXO)

  • From 07 December at 09:00 UTC, to day 08 of the month at 09:00 UTC
  • Clouds: Broken sky at 305 meters
  • Visibility: Greater than 10 km
  • Wind: 130 degrees at 6
  • Expected to arise temporarily, from 07 December at 09:00 UTC, to day 07 of the month at 10:00 UTC
    Probability of 30%
  • Visibility: 4000 meters
  • Other: Patches of fog